Terminal Aerodrome Forecast
Issued by NWS Corpus Christi, TX

Home | Current Version | Previous Version | Text Only | Print | Product List | Glossary On
Versions: 1 2 3 4 5 6 7 8 9 10 11 12 13 14 15 16 17 18 19 20 21 22 23
481
FTUS44 KCRP 051136
TAFCRP
TAF
KCRP 051136Z 0512/0612 32011KT P6SM -RA SCT009 BKN015 OVC060
      TEMPO 0512/0515 BKN009 OVC015
     FM051600 31014KT P6SM SCT015 OVC060
     FM052000 30013KT P6SM FEW035 SCT060
     FM060200 26007KT P6SM FEW060
     FM060900 24006KT 3SM BR SKC=

USA.gov is the U.S. government's official web portal to all federal, state and local government web resources and services.